sensor_id;sensor_type;location;lat;lon;timestamp;temperature;humidity
45311;SHT31;68264;51.540;5.854;2023-04-25T00:00:57;6.6;85.0
45311;SHT31;68264;51.540;5.854;2023-04-25T00:15:46;6.6;85.2
45311;SHT31;68264;51.540;5.854;2023-04-25T00:30:05;6.6;85.5
45311;SHT31;68264;51.540;5.854;2023-04-25T00:44:04;6.4;85.9
45311;SHT31;68264;51.540;5.854;2023-04-25T00:58:03;6.3;86.2
45311;SHT31;68264;51.540;5.854;2023-04-25T01:12:02;6.2;86.9
45311;SHT31;68264;51.540;5.854;2023-04-25T01:26:01;6.1;87.1
45311;SHT31;68264;51.540;5.854;2023-04-25T01:40:00;5.9;87.7
45311;SHT31;68264;51.540;5.854;2023-04-25T01:55:32;5.8;87.5
45311;SHT31;68264;51.540;5.854;2023-04-25T02:11:02;5.5;88.6
45311;SHT31;68264;51.540;5.854;2023-04-25T02:25:01;5.4;89.1
45311;SHT31;68264;51.540;5.854;2023-04-25T02:40:01;5.5;88.5
45311;SHT31;68264;51.540;5.854;2023-04-25T02:55:01;5.4;88.5
45311;SHT31;68264;51.540;5.854;2023-04-25T03:09:00;5.1;88.7
45311;SHT31;68264;51.540;5.854;2023-04-25T03:22:59;4.8;89.2
45311;SHT31;68264;51.540;5.854;2023-04-25T03:37:59;4.7;89.6
45311;SHT31;68264;51.540;5.854;2023-04-25T03:52:59;4.6;89.5
45311;SHT31;68264;51.540;5.854;2023-04-25T04:08:31;4.8;89.7
45311;SHT31;68264;51.540;5.854;2023-04-25T04:24:01;4.7;89.2
45311;SHT31;68264;51.540;5.854;2023-04-25T04:39:01;4.9;89.2
45311;SHT31;68264;51.540;5.854;2023-04-25T04:54:01;4.8;89.4
45311;SHT31;68264;51.540;5.854;2023-04-25T05:08:00;4.8;89.3
45311;SHT31;68264;51.540;5.854;2023-04-25T05:21:59;5.0;88.8
45311;SHT31;68264;51.540;5.854;2023-04-25T05:35:58;5.4;88.2
45311;SHT31;68264;51.540;5.854;2023-04-25T05:50:26;5.7;85.2
45311;SHT31;68264;51.540;5.854;2023-04-25T06:05:14;6.1;84.2
45311;SHT31;68264;51.540;5.854;2023-04-25T06:19:34;6.4;81.9
45311;SHT31;68264;51.540;5.854;2023-04-25T06:34:02;6.7;78.7
45311;SHT31;68264;51.540;5.854;2023-04-25T06:48:50;7.3;76.6
45311;SHT31;68264;51.540;5.854;2023-04-25T07:03:09;7.7;74.4
45311;SHT31;68264;51.540;5.854;2023-04-25T07:17:08;8.0;73.2
45311;SHT31;68264;51.540;5.854;2023-04-25T07:31:07;8.1;70.9
45311;SHT31;68264;51.540;5.854;2023-04-25T07:45:35;9.3;67.0
45311;SHT31;68264;51.540;5.854;2023-04-25T07:59:55;9.3;68.8
45311;SHT31;68264;51.540;5.854;2023-04-25T08:13:54;9.6;64.1
45311;SHT31;68264;51.540;5.854;2023-04-25T08:27:53;9.7;64.5
45311;SHT31;68264;51.540;5.854;2023-04-25T08:41:52;9.5;65.2
45311;SHT31;68264;51.540;5.854;2023-04-25T08:56:20;9.5;65.5
45311;SHT31;68264;51.540;5.854;2023-04-25T09:10:39;9.7;64.4
45311;SHT31;68264;51.540;5.854;2023-04-25T09:25:07;10.2;62.1
45311;SHT31;68264;51.540;5.854;2023-04-25T09:39:56;10.0;62.8
45311;SHT31;68264;51.540;5.854;2023-04-25T09:54:15;10.3;63.1
45311;SHT31;68264;51.540;5.854;2023-04-25T10:08:14;8.5;70.8
45311;SHT31;68264;51.540;5.854;2023-04-25T10:22:13;6.7;70.2
45311;SHT31;68264;51.540;5.854;2023-04-25T10:36:12;7.6;69.0
45311;SHT31;68264;51.540;5.854;2023-04-25T10:50:40;8.6;67.7
45311;SHT31;68264;51.540;5.854;2023-04-25T11:04:59;10.0;66.1
45311;SHT31;68264;51.540;5.854;2023-04-25T11:18:58;10.7;62.0
45311;SHT31;68264;51.540;5.854;2023-04-25T11:32:57;9.7;61.9
45311;SHT31;68264;51.540;5.854;2023-04-25T11:47:26;8.9;65.4
45311;SHT31;68264;51.540;5.854;2023-04-25T12:01:45;9.3;69.0
45311;SHT31;68264;51.540;5.854;2023-04-25T12:15:44;9.9;65.1
45311;SHT31;68264;51.540;5.854;2023-04-25T12:29:43;10.4;63.3
45311;SHT31;68264;51.540;5.854;2023-04-25T12:43:42;11.0;60.3
45311;SHT31;68264;51.540;5.854;2023-04-25T12:57:41;10.7;52.5
45311;SHT31;68264;51.540;5.854;2023-04-25T13:11:40;10.9;51.0
45311;SHT31;68264;51.540;5.854;2023-04-25T13:25:39;11.4;61.5
45311;SHT31;68264;51.540;5.854;2023-04-25T13:39:38;10.4;63.2
45311;SHT31;68264;51.540;5.854;2023-04-25T13:54:06;10.4;59.5
45311;SHT31;68264;51.540;5.854;2023-04-25T14:08:25;10.6;56.9
45311;SHT31;68264;51.540;5.854;2023-04-25T14:22:24;11.1;55.0
45311;SHT31;68264;51.540;5.854;2023-04-25T14:36:23;11.0;60.7
45311;SHT31;68264;51.540;5.854;2023-04-25T14:50:22;11.3;53.9
45311;SHT31;68264;51.540;5.854;2023-04-25T15:04:21;11.0;55.5
45311;SHT31;68264;51.540;5.854;2023-04-25T15:18:20;11.7;52.5
45311;SHT31;68264;51.540;5.854;2023-04-25T15:32:20;11.2;56.1
45311;SHT31;68264;51.540;5.854;2023-04-25T15:47:52;10.5;57.7
45311;SHT31;68264;51.540;5.854;2023-04-25T16:03:21;10.8;58.5
45311;SHT31;68264;51.540;5.854;2023-04-25T16:17:21;11.9;50.9
45311;SHT31;68264;51.540;5.854;2023-04-25T16:31:49;10.6;59.4
45311;SHT31;68264;51.540;5.854;2023-04-25T16:46:08;10.5;58.9
45311;SHT31;68264;51.540;5.854;2023-04-25T17:00:07;9.3;59.5
45311;SHT31;68264;51.540;5.854;2023-04-25T17:15:39;9.5;58.3
45311;SHT31;68264;51.540;5.854;2023-04-25T17:31:09;9.2;58.5
45311;SHT31;68264;51.540;5.854;2023-04-25T17:45:08;9.8;61.3
45311;SHT31;68264;51.540;5.854;2023-04-25T17:59:07;10.2;58.1
45311;SHT31;68264;51.540;5.854;2023-04-25T18:13:06;9.6;61.5
45311;SHT31;68264;51.540;5.854;2023-04-25T18:27:05;8.9;62.1
45311;SHT31;68264;51.540;5.854;2023-04-25T18:41:04;8.3;64.3
45311;SHT31;68264;51.540;5.854;2023-04-25T18:55:32;7.7;66.1
45311;SHT31;68264;51.540;5.854;2023-04-25T19:09:52;7.2;67.5
45311;SHT31;68264;51.540;5.854;2023-04-25T19:23:51;6.9;68.7
45311;SHT31;68264;51.540;5.854;2023-04-25T19:37:50;6.4;70.4
45311;SHT31;68264;51.540;5.854;2023-04-25T19:52:50;6.1;70.9
45311;SHT31;68264;51.540;5.854;2023-04-25T20:07:50;5.8;72.0
45311;SHT31;68264;51.540;5.854;2023-04-25T20:22:18;5.4;72.3
45311;SHT31;68264;51.540;5.854;2023-04-25T20:36:37;4.6;75.2
45311;SHT31;68264;51.540;5.854;2023-04-25T20:50:36;4.5;77.4
45311;SHT31;68264;51.540;5.854;2023-04-25T21:04:35;4.7;76.5
45311;SHT31;68264;51.540;5.854;2023-04-25T21:18:34;4.6;76.7
45311;SHT31;68264;51.540;5.854;2023-04-25T21:32:33;4.5;77.0
45311;SHT31;68264;51.540;5.854;2023-04-25T21:46:32;4.4;77.3
45311;SHT31;68264;51.540;5.854;2023-04-25T22:00:31;4.3;78.0
45311;SHT31;68264;51.540;5.854;2023-04-25T22:14:30;3.8;78.0
45311;SHT31;68264;51.540;5.854;2023-04-25T22:42:28;2.8;81.9
45311;SHT31;68264;51.540;5.854;2023-04-25T22:56:27;2.6;82.6
45311;SHT31;68264;51.540;5.854;2023-04-25T23:10:55;2.4;82.7
45311;SHT31;68264;51.540;5.854;2023-04-25T23:25:44;2.3;83.6
45311;SHT31;68264;51.540;5.854;2023-04-25T23:40:32;2.2;83.9
45311;SHT31;68264;51.540;5.854;2023-04-25T23:54:51;2.1;85.0
